Walnut Grove, Mississippi
Current Conditions -  °F | °C
As of 1:54 PM on Sunday 21 Dec 2014 (Local Time) from KJAN Reporting Station
Scattered Clouds Scattered Clouds  
Wind Chill: 60°   Ceiling: Unl
Heat Index: 60°   Visibility: 10mi
Dew Point: 46°   Wind: 7mph
Humidity: 60%   Direction: NA
Pressure: 30.03"   Gusts: NA
Location:  32.59°N, 89.46°W
Report Text: KJAN 211954Z VRB06KT 10SM SCT250 16/08 A3003 RMK AO2 SLP168 T01560078
Loading
Personal Weather Stations






























Interactive Weather Map New forecast layout! Learn more

10-Day Weather Forecast

Advertisements
Track Severe Weather on mobile